createdAt,value
2023-04-16T00:02:42.021Z,94.24
2023-04-16T00:05:45.006Z,93.91
2023-04-16T00:08:47.675Z,93.21
2023-04-16T00:11:51.883Z,93.68
2023-04-16T00:14:54.641Z,93.63
2023-04-16T00:17:57.721Z,94.14
2023-04-16T00:21:00.818Z,95.00
2023-04-16T00:24:03.482Z,94.78
2023-04-16T00:27:07.585Z,94.30
2023-04-16T00:30:11.159Z,94.56
2023-04-16T00:33:13.891Z,94.27
2023-04-16T00:36:16.615Z,94.49
2023-04-16T00:39:19.430Z,94.09
2023-04-16T00:42:23.732Z,93.76
2023-04-16T00:45:26.856Z,94.24
2023-04-16T00:48:31.750Z,93.86
2023-04-16T00:51:36.531Z,94.43
2023-04-16T00:54:40.116Z,94.21
2023-04-16T00:57:44.308Z,94.71
2023-04-16T01:00:47.007Z,94.66
2023-04-16T01:03:51.020Z,94.81
2023-04-16T01:06:53.926Z,93.88
2023-04-16T01:09:56.760Z,93.99
2023-04-16T01:13:00.857Z,93.94
2023-04-16T01:16:03.639Z,94.07
2023-04-16T01:19:06.500Z,94.37
2023-04-16T01:22:10.810Z,94.62
2023-04-16T01:25:15.833Z,95.00
2023-04-16T01:28:18.732Z,95.30
2023-04-16T01:31:21.381Z,95.59
2023-04-16T01:34:24.080Z,95.31
2023-04-16T01:37:28.213Z,95.61
2023-04-16T01:40:31.167Z,95.80
2023-04-16T01:43:33.832Z,95.07
2023-04-16T01:46:36.787Z,94.60
2023-04-16T01:49:39.545Z,95.13
2023-04-16T01:52:43.569Z,95.43
2023-04-16T01:55:46.324Z,95.10
2023-04-16T01:58:49.011Z,95.13
2023-04-16T02:01:51.762Z,94.55
2023-04-16T02:04:54.551Z,94.89
2023-04-16T02:07:58.489Z,95.13
2023-04-16T02:11:01.872Z,95.00
2023-04-16T02:14:04.592Z,95.53
2023-04-16T02:17:07.222Z,95.35
2023-04-16T02:20:11.167Z,95.86
2023-04-16T02:23:15.814Z,96.39
2023-04-16T02:26:18.486Z,95.80
2023-04-16T02:29:22.528Z,95.17
2023-04-16T02:32:25.296Z,95.42
2023-04-16T02:35:28.212Z,95.65
2023-04-16T02:38:32.179Z,95.27
2023-04-16T02:41:34.939Z,94.91
2023-04-16T02:44:38.037Z,95.04
2023-04-16T02:47:40.735Z,94.80
2023-04-16T02:50:46.171Z,95.77
2023-04-16T02:53:50.511Z,95.56
2023-04-16T02:56:53.171Z,95.54
2023-04-16T02:59:55.919Z,95.79
2023-04-16T03:02:58.660Z,96.33
2023-04-16T03:06:01.461Z,95.88
2023-04-16T03:09:05.484Z,95.61
2023-04-16T03:12:08.148Z,96.14
2023-04-16T03:15:11.716Z,95.63
2023-04-16T03:18:14.384Z,95.75
2023-04-16T03:21:17.035Z,95.83
2023-04-16T03:24:21.220Z,94.97
2023-04-16T03:27:23.844Z,95.64
2023-04-16T03:30:26.617Z,95.33
2023-04-16T03:33:29.251Z,95.91
2023-04-16T03:36:32.524Z,95.63
2023-04-16T03:39:36.558Z,95.87
2023-04-16T03:42:40.448Z,94.93
2023-04-16T03:45:45.450Z,94.69
2023-04-16T03:48:48.087Z,95.62
2023-04-16T03:51:51.143Z,96.05
2023-04-16T03:54:55.243Z,95.50
2023-04-16T03:57:57.853Z,95.75
2023-04-16T04:01:00.473Z,95.20
2023-04-16T04:04:03.503Z,96.36
2023-04-16T04:07:06.667Z,96.48
2023-04-16T04:10:12.650Z,96.08
2023-04-16T04:13:15.277Z,96.24
2023-04-16T04:16:18.397Z,96.06
2023-04-16T04:19:21.089Z,96.06
2023-04-16T04:22:23.771Z,95.57
2023-04-16T04:25:28.376Z,95.76
2023-04-16T04:28:31.445Z,95.92
2023-04-16T04:31:34.125Z,95.82
2023-04-16T04:34:36.909Z,95.89
2023-04-16T04:37:39.606Z,96.10
2023-04-16T04:40:43.802Z,96.58
2023-04-16T04:43:46.510Z,95.86
2023-04-16T04:46:49.235Z,95.63
2023-04-16T04:49:51.995Z,95.28
2023-04-16T04:52:54.712Z,96.18
2023-04-16T04:56:09.161Z,96.82
2023-04-16T04:59:15.418Z,96.73
2023-04-16T05:02:18.732Z,96.44
2023-04-16T05:05:21.709Z,96.85
2023-04-16T05:08:24.432Z,96.83
2023-04-16T05:11:28.529Z,96.66
2023-04-16T05:14:31.193Z,96.30
2023-04-16T05:17:34.029Z,96.45
2023-04-16T05:20:37.786Z,96.05
2023-04-16T05:23:40.489Z,96.98
2023-04-16T05:26:44.572Z,97.12
2023-04-16T05:29:47.235Z,96.49
2023-04-16T05:32:49.936Z,95.71
2023-04-16T05:35:52.643Z,95.91
2023-04-16T05:38:55.372Z,95.85
2023-04-16T05:41:59.450Z,96.63
2023-04-16T05:45:03.474Z,96.84
2023-04-16T05:48:06.518Z,96.88
2023-04-16T05:51:09.268Z,97.35
2023-04-16T05:54:12.009Z,96.50
2023-04-16T05:57:17.230Z,98.05
2023-04-16T06:00:20.062Z,97.18
2023-04-16T06:03:22.863Z,96.82
2023-04-16T06:06:27.321Z,96.58
2023-04-16T06:09:30.778Z,96.65
2023-04-16T06:12:35.291Z,95.68
2023-04-16T06:15:38.104Z,96.02
2023-04-16T06:18:41.083Z,96.62
2023-04-16T06:21:44.379Z,96.42
2023-04-16T06:24:47.260Z,96.14
2023-04-16T06:27:51.393Z,96.98
2023-04-16T06:30:54.128Z,96.75
2023-04-16T06:33:57.006Z,95.92
2023-04-16T06:36:59.768Z,96.50
2023-04-16T06:40:02.447Z,96.76
2023-04-16T06:43:08.348Z,96.28
2023-04-16T06:46:11.144Z,96.80
2023-04-16T06:49:13.839Z,96.81
2023-04-16T06:52:16.561Z,96.88
2023-04-16T06:55:19.328Z,96.95
2023-04-16T06:58:23.506Z,95.47
2023-04-16T07:01:26.813Z,96.28
2023-04-16T07:04:29.684Z,95.91
2023-04-16T07:07:32.429Z,95.36
2023-04-16T07:10:35.356Z,95.75
2023-04-16T07:13:39.419Z,96.25
2023-04-16T07:16:42.232Z,95.95
2023-04-16T07:19:45.446Z,95.58
2023-04-16T07:22:48.191Z,95.49
2023-04-16T07:25:50.940Z,95.37
2023-04-16T07:28:54.950Z,95.51
2023-04-16T07:31:58.337Z,95.34
2023-04-16T07:35:01.060Z,95.67
2023-04-16T07:38:03.802Z,95.64
2023-04-16T07:41:06.720Z,95.78
2023-04-16T07:44:11.012Z,95.51
2023-04-16T07:47:13.767Z,95.99
2023-04-16T07:50:16.712Z,95.01
2023-04-16T07:53:19.420Z,95.05
2023-04-16T07:56:22.327Z,94.58
2023-04-16T07:59:26.683Z,94.80
2023-04-16T08:02:30.073Z,95.17
2023-04-16T08:05:32.911Z,94.51
2023-04-16T08:08:35.641Z,94.85
2023-04-16T08:11:38.413Z,93.58
2023-04-16T08:14:42.553Z,93.13
2023-04-16T08:17:45.737Z,93.04
2023-04-16T08:20:48.501Z,93.59
2023-04-16T08:23:51.334Z,94.25
2023-04-16T08:26:54.068Z,94.25
2023-04-16T08:29:58.151Z,94.74
2023-04-16T08:33:01.206Z,93.71
2023-04-16T08:36:03.962Z,94.45
2023-04-16T08:39:06.692Z,95.24
2023-04-16T08:42:19.834Z,95.29
2023-04-16T08:45:26.890Z,94.98
2023-04-16T08:48:33.495Z,94.23
2023-04-16T08:51:36.707Z,94.61
2023-04-16T08:54:47.429Z,95.47
2023-04-16T08:58:00.747Z,95.16
2023-04-16T09:01:06.238Z,94.39
2023-04-16T09:04:10.111Z,93.94
2023-04-16T09:07:13.460Z,93.99
2023-04-16T09:10:16.631Z,94.35
2023-04-16T09:13:20.544Z,94.21
2023-04-16T09:16:26.454Z,94.06
2023-04-16T09:19:29.317Z,92.65
2023-04-16T09:22:32.049Z,93.23
2023-04-16T09:25:35.699Z,93.21
2023-04-16T09:28:43.485Z,94.14
2023-04-16T09:32:03.398Z,93.77
2023-04-16T09:35:06.582Z,93.38
2023-04-16T09:38:09.350Z,94.14
2023-04-16T09:41:12.411Z,93.99
2023-04-16T09:44:15.338Z,92.67
2023-04-16T09:47:19.379Z,93.11
2023-04-16T09:50:22.086Z,93.57
2023-04-16T09:53:26.040Z,92.19
2023-04-16T09:56:30.421Z,93.15
2023-04-16T09:59:34.338Z,94.62
2023-04-16T10:02:41.984Z,92.83
2023-04-16T10:05:45.151Z,93.18
2023-04-16T10:08:50.281Z,93.80
2023-04-16T10:11:53.449Z,94.37
2023-04-16T10:14:56.298Z,93.47
2023-04-16T10:18:01.072Z,94.03
2023-04-16T10:21:04.016Z,93.56
2023-04-16T10:24:08.175Z,93.85
2023-04-16T10:27:12.294Z,94.18
2023-04-16T10:30:17.939Z,94.55
2023-04-16T10:33:24.348Z,94.87
2023-04-16T10:36:27.619Z,94.01
2023-04-16T10:39:30.350Z,93.61
2023-04-16T10:42:33.603Z,93.96
2023-04-16T10:45:39.210Z,93.19
2023-04-16T10:48:49.758Z,91.44
2023-04-16T10:51:55.245Z,92.48
2023-04-16T10:55:00.368Z,93.62
2023-04-16T10:58:03.016Z,92.30
2023-04-16T11:01:11.926Z,94.17
2023-04-16T11:04:38.516Z,95.18
2023-04-16T11:07:49.883Z,94.27
2023-04-16T11:10:53.013Z,94.76
2023-04-16T11:13:57.722Z,94.60
2023-04-16T11:17:04.792Z,94.09
2023-04-16T11:20:18.855Z,93.94
2023-04-16T11:23:23.026Z,95.31
2023-04-16T11:26:27.079Z,95.48
2023-04-16T11:29:29.888Z,95.70
2023-04-16T11:32:33.735Z,96.07
2023-04-16T11:35:39.375Z,95.72
2023-04-16T11:38:42.969Z,95.81
2023-04-16T11:41:47.483Z,95.39
2023-04-16T11:44:54.107Z,94.89
2023-04-16T11:47:57.967Z,94.30
2023-04-16T11:51:02.302Z,95.25
2023-04-16T11:54:05.575Z,95.46
2023-04-16T11:57:08.291Z,94.92
2023-04-16T12:00:14.180Z,95.93
2023-04-16T12:03:17.622Z,96.03
2023-04-16T12:06:24.249Z,95.32
2023-04-16T12:09:27.514Z,95.46
2023-04-16T12:12:32.282Z,95.54
2023-04-16T12:15:45.246Z,95.11
2023-04-16T12:19:01.447Z,96.19
2023-04-16T12:22:05.505Z,96.48
2023-04-16T12:25:11.634Z,96.40
2023-04-16T12:28:16.463Z,95.03
2023-04-16T12:31:20.427Z,95.93
2023-04-16T12:34:28.873Z,96.11
2023-04-16T12:37:47.887Z,95.90
2023-04-16T12:40:50.722Z,95.25
2023-04-16T12:43:53.941Z,95.67
2023-04-16T12:46:56.592Z,96.49
2023-04-16T12:49:59.540Z,97.03
2023-04-16T12:53:03.672Z,96.40
2023-04-16T12:56:06.952Z,95.99
2023-04-16T12:59:10.488Z,96.12
2023-04-16T13:02:13.616Z,95.90
2023-04-16T13:05:19.069Z,96.17
2023-04-16T13:08:23.257Z,95.97
2023-04-16T13:11:26.078Z,96.19
2023-04-16T13:14:28.799Z,95.73
2023-04-16T13:17:31.828Z,95.36
2023-04-16T13:20:34.689Z,95.27
2023-04-16T13:23:38.839Z,95.88
2023-04-16T13:26:42.476Z,96.46
2023-04-16T13:29:45.220Z,95.21
2023-04-16T13:32:47.957Z,96.32
2023-04-16T13:35:51.352Z,96.46
2023-04-16T13:38:55.436Z,97.32
2023-04-16T13:41:58.208Z,96.05
2023-04-16T13:45:01.280Z,96.84
2023-04-16T13:48:04.258Z,97.37
2023-04-16T13:51:08.358Z,96.43
2023-04-16T13:54:12.743Z,96.70
2023-04-16T13:57:15.532Z,97.02
2023-04-16T14:00:19.653Z,97.83
2023-04-16T14:03:22.587Z,98.22
2023-04-16T14:06:25.922Z,98.17
2023-04-16T14:09:30.819Z,98.15
2023-04-16T14:12:33.609Z,98.21
2023-04-16T14:15:36.523Z,97.99
2023-04-16T14:18:42.153Z,97.41
2023-04-16T14:21:44.833Z,97.96
2023-04-16T14:24:49.120Z,98.31
2023-04-16T14:27:52.258Z,98.16
2023-04-16T14:30:54.925Z,97.58
2023-04-16T14:33:57.619Z,97.77
2023-04-16T14:37:00.321Z,98.45
2023-04-16T14:40:08.903Z,98.60
2023-04-16T14:43:11.706Z,97.58
2023-04-16T14:46:17.680Z,97.50
2023-04-16T14:49:20.705Z,97.30
2023-04-16T14:52:23.531Z,96.27
2023-04-16T14:55:27.631Z,97.55
2023-04-16T14:58:30.440Z,97.64
2023-04-16T15:01:34.657Z,96.98
2023-04-16T15:04:37.619Z,98.06
2023-04-16T15:07:40.508Z,98.06
2023-04-16T15:10:45.780Z,98.43
2023-04-16T15:13:48.484Z,98.61
2023-04-16T15:16:51.699Z,96.68
2023-04-16T15:19:54.634Z,97.55
2023-04-16T15:22:57.382Z,97.79
2023-04-16T15:26:01.584Z,97.90
2023-04-16T15:29:04.420Z,97.44
2023-04-16T15:32:07.940Z,98.60
2023-04-16T15:35:11.450Z,99.39
2023-04-16T15:38:14.354Z,99.64
2023-04-16T15:41:18.560Z,100.00
2023-04-16T15:44:21.347Z,99.54
2023-04-16T15:47:24.152Z,100.00
2023-04-16T15:50:27.343Z,100.00
2023-04-16T15:53:29.998Z,100.00
2023-04-16T15:56:34.205Z,99.64
2023-04-16T15:59:36.913Z,100.00
2023-04-16T16:02:39.882Z,98.19
2023-04-16T16:05:42.688Z,99.39
2023-04-16T16:08:45.404Z,99.47
2023-04-16T16:11:49.490Z,99.61
2023-04-16T16:14:52.187Z,100.00
2023-04-16T16:17:55.584Z,100.00
2023-04-16T16:20:58.460Z,100.00
2023-04-16T16:24:01.223Z,100.00
2023-04-16T16:27:05.368Z,100.00
2023-04-16T16:30:09.649Z,99.93
2023-04-16T16:33:12.766Z,100.00
2023-04-16T16:36:15.563Z,99.43
2023-04-16T16:39:18.248Z,98.91
2023-04-16T16:42:22.357Z,98.43
2023-04-16T16:45:26.097Z,98.89
2023-04-16T16:48:28.776Z,99.38
2023-04-16T16:51:33.569Z,99.37
2023-04-16T16:54:36.288Z,98.70
2023-04-16T16:57:40.515Z,99.37
2023-04-16T17:00:43.270Z,99.51
2023-04-16T17:03:46.160Z,99.63
2023-04-16T17:06:49.032Z,98.60
2023-04-16T17:09:51.716Z,98.86
2023-04-16T17:12:55.972Z,99.29
2023-04-16T17:15:58.643Z,99.88
2023-04-16T17:19:01.361Z,100.00
2023-04-16T17:22:05.078Z,100.00
2023-04-16T17:25:08.878Z,100.00
2023-04-16T17:28:12.973Z,99.74
2023-04-16T17:31:16.234Z,99.35
2023-04-16T17:34:19.548Z,99.98
2023-04-16T17:37:22.255Z,100.00
2023-04-16T17:40:24.927Z,100.00
2023-04-16T17:43:29.208Z,100.00
2023-04-16T17:46:32.008Z,100.00
2023-04-16T17:49:34.783Z,100.00
2023-04-16T17:52:38.173Z,100.00
2023-04-16T17:55:42.629Z,100.00
2023-04-16T17:58:46.743Z,100.00
2023-04-16T18:01:49.837Z,100.00
2023-04-16T18:04:52.753Z,100.00
2023-04-16T18:07:56.591Z,100.00
2023-04-16T18:10:59.327Z,100.00
2023-04-16T18:14:03.379Z,100.00
2023-04-16T18:17:06.745Z,100.00
2023-04-16T18:20:11.625Z,100.00
2023-04-16T18:23:14.404Z,99.71
2023-04-16T18:26:20.518Z,99.84
2023-04-16T18:29:25.641Z,99.68
2023-04-16T18:32:31.065Z,99.41
2023-04-16T18:35:34.186Z,99.92
2023-04-16T18:38:41.432Z,99.42
2023-04-16T18:41:52.256Z,99.22
2023-04-16T18:44:56.823Z,99.83
2023-04-16T18:47:59.610Z,99.57
2023-04-16T18:51:02.356Z,99.79
2023-04-16T18:54:05.311Z,100.00
2023-04-16T18:57:08.124Z,99.99
2023-04-16T19:00:13.550Z,100.00
2023-04-16T19:03:16.461Z,99.99
2023-04-16T19:06:19.321Z,99.90
2023-04-16T19:09:22.097Z,99.85
2023-04-16T19:12:24.982Z,99.14
2023-04-16T19:15:31.201Z,99.26
2023-04-16T19:18:36.047Z,99.31
2023-04-16T19:21:39.479Z,99.37
2023-04-16T19:24:42.241Z,99.32
2023-04-16T19:27:45.115Z,99.39
2023-04-16T19:30:50.930Z,99.75
2023-04-16T19:33:53.934Z,99.74
2023-04-16T19:36:56.712Z,99.53
2023-04-16T19:39:59.752Z,98.99
2023-04-16T19:43:02.438Z,99.11
2023-04-16T19:46:06.572Z,98.98
2023-04-16T19:49:09.714Z,99.56
2023-04-16T19:52:12.806Z,99.98
2023-04-16T19:55:16.352Z,99.36
2023-04-16T19:58:19.102Z,99.81
2023-04-16T20:01:23.369Z,99.86
2023-04-16T20:04:26.468Z,99.73
2023-04-16T20:07:29.670Z,99.81
2023-04-16T20:10:32.448Z,99.17
2023-04-16T20:13:37.683Z,99.56
2023-04-16T20:16:43.632Z,99.91
2023-04-16T20:19:49.594Z,99.76
2023-04-16T20:22:52.482Z,100.00
2023-04-16T20:25:55.223Z,99.96
2023-04-16T20:28:58.113Z,99.87
2023-04-16T20:32:02.199Z,99.66
2023-04-16T20:35:10.380Z,99.38
2023-04-16T20:38:13.335Z,99.14
2023-04-16T20:41:21.031Z,99.18
2023-04-16T20:44:26.177Z,99.39
2023-04-16T20:47:30.478Z,99.32
2023-04-16T20:50:33.383Z,98.76
2023-04-16T20:53:37.157Z,98.53
2023-04-16T20:56:39.778Z,98.24
2023-04-16T20:59:42.714Z,98.27
2023-04-16T21:02:46.979Z,98.17
2023-04-16T21:05:50.982Z,98.12
2023-04-16T21:08:53.692Z,98.18
2023-04-16T21:11:56.555Z,98.25
2023-04-16T21:14:59.398Z,98.93
2023-04-16T21:18:03.529Z,98.49
2023-04-16T21:21:06.651Z,99.14
2023-04-16T21:24:09.706Z,98.41
2023-04-16T21:27:12.814Z,99.43
2023-04-16T21:30:16.360Z,99.12
2023-04-16T21:33:20.527Z,98.63
2023-04-16T21:36:26.440Z,98.82
2023-04-16T21:39:30.908Z,98.42
2023-04-16T21:42:33.856Z,98.61
2023-04-16T21:45:36.713Z,98.39
2023-04-16T21:48:40.925Z,98.53
2023-04-16T21:51:46.031Z,99.08
2023-04-16T21:54:48.939Z,98.50
2023-04-16T21:57:51.655Z,99.14
2023-04-16T22:00:54.878Z,98.98
2023-04-16T22:03:59.113Z,98.32
2023-04-16T22:07:03.270Z,98.54
2023-04-16T22:10:08.701Z,98.65
2023-04-16T22:13:12.679Z,98.83
2023-04-16T22:16:15.692Z,98.90
2023-04-16T22:19:21.607Z,98.71
2023-04-16T22:22:24.596Z,98.40
2023-04-16T22:25:27.436Z,97.97
2023-04-16T22:28:30.172Z,98.10
2023-04-16T22:31:33.016Z,98.04
2023-04-16T22:34:37.140Z,97.84
2023-04-16T22:37:40.475Z,98.02
2023-04-16T22:40:43.254Z,97.85
2023-04-16T22:43:45.997Z,97.23
2023-04-16T22:46:48.835Z,97.88
2023-04-16T22:49:53.757Z,97.98
2023-04-16T22:52:56.676Z,97.83
2023-04-16T22:55:59.525Z,97.01
2023-04-16T22:59:02.284Z,97.42
2023-04-16T23:02:05.035Z,97.20
2023-04-16T23:05:10.470Z,97.31
2023-04-16T23:08:13.328Z,97.21
2023-04-16T23:11:16.351Z,97.21
2023-04-16T23:14:19.528Z,96.91
2023-04-16T23:17:22.183Z,97.22
2023-04-16T23:20:26.356Z,96.89
2023-04-16T23:23:29.271Z,96.78
2023-04-16T23:26:32.787Z,96.40
2023-04-16T23:29:35.512Z,96.88
2023-04-16T23:32:38.277Z,97.11
2023-04-16T23:35:42.412Z,96.53
2023-04-16T23:38:45.219Z,96.87
2023-04-16T23:41:47.954Z,96.76
2023-04-16T23:44:50.761Z,97.05
2023-04-16T23:47:53.560Z,97.32
2023-04-16T23:50:57.718Z,97.58
2023-04-16T23:54:00.549Z,97.31
2023-04-16T23:57:03.236Z,97.05
